sensor_id;sensor_type;location;lat;lon;timestamp;temperature;humidity
35920;DHT22;36160;53.370;-6.196;2022-09-09T00:02:03;15.80;99.90
35920;DHT22;36160;53.370;-6.196;2022-09-09T00:04:35;15.90;99.90
35920;DHT22;36160;53.370;-6.196;2022-09-09T00:07:25;15.90;99.90
35920;DHT22;36160;53.370;-6.196;2022-09-09T00:13:43;15.70;99.90
35920;DHT22;36160;53.370;-6.196;2022-09-09T00:21:25;15.70;99.90
35920;DHT22;36160;53.370;-6.196;2022-09-09T00:23:54;15.80;99.90
35920;DHT22;36160;53.370;-6.196;2022-09-09T00:29:57;15.50;99.90
35920;DHT22;36160;53.370;-6.196;2022-09-09T00:32:28;15.60;99.90
35920;DHT22;36160;53.370;-6.196;2022-09-09T00:35:04;15.60;99.90
35920;DHT22;36160;53.370;-6.196;2022-09-09T00:37:38;15.80;99.90
35920;DHT22;36160;53.370;-6.196;2022-09-09T00:40:39;15.80;99.90
35920;DHT22;36160;53.370;-6.196;2022-09-09T00:46:17;15.50;99.90
35920;DHT22;36160;53.370;-6.196;2022-09-09T00:52:03;15.50;99.90
35920;DHT22;36160;53.370;-6.196;2022-09-09T00:59:52;15.60;99.90
35920;DHT22;36160;53.370;-6.196;2022-09-09T01:04:54;15.60;99.90
35920;DHT22;36160;53.370;-6.196;2022-09-09T01:07:20;15.50;99.90
35920;DHT22;36160;53.370;-6.196;2022-09-09T01:09:58;15.60;99.90
35920;DHT22;36160;53.370;-6.196;2022-09-09T01:12:41;15.50;99.90
35920;DHT22;36160;53.370;-6.196;2022-09-09T01:15:14;15.60;99.90
35920;DHT22;36160;53.370;-6.196;2022-09-09T01:20:23;15.50;99.90
35920;DHT22;36160;53.370;-6.196;2022-09-09T01:23:14;15.40;99.90
35920;DHT22;36160;53.370;-6.196;2022-09-09T01:28:33;15.50;99.90
35920;DHT22;36160;53.370;-6.196;2022-09-09T01:31:03;15.60;99.90
35920;DHT22;36160;53.370;-6.196;2022-09-09T01:33:29;15.40;99.90
35920;DHT22;36160;53.370;-6.196;2022-09-09T01:36:05;15.60;99.90
35920;DHT22;36160;53.370;-6.196;2022-09-09T01:38:32;15.40;99.90
35920;DHT22;36160;53.370;-6.196;2022-09-09T01:40:59;15.50;99.90
35920;DHT22;36160;53.370;-6.196;2022-09-09T01:43:25;15.40;99.90
35920;DHT22;36160;53.370;-6.196;2022-09-09T01:45:54;15.50;99.90
35920;DHT22;36160;53.370;-6.196;2022-09-09T01:48:22;15.40;99.90
35920;DHT22;36160;53.370;-6.196;2022-09-09T01:50:49;15.50;99.90
35920;DHT22;36160;53.370;-6.196;2022-09-09T01:53:16;15.40;99.90
35920;DHT22;36160;53.370;-6.196;2022-09-09T01:56:00;15.50;99.90
35920;DHT22;36160;53.370;-6.196;2022-09-09T01:58:50;15.30;99.90
35920;DHT22;36160;53.370;-6.196;2022-09-09T02:09:47;15.50;99.90
35920;DHT22;36160;53.370;-6.196;2022-09-09T02:12:18;15.50;99.90
35920;DHT22;36160;53.370;-6.196;2022-09-09T02:14:50;15.40;99.90
35920;DHT22;36160;53.370;-6.196;2022-09-09T02:17:26;15.30;99.90
35920;DHT22;36160;53.370;-6.196;2022-09-09T02:20:00;15.40;99.90
35920;DHT22;36160;53.370;-6.196;2022-09-09T02:22:28;15.30;99.90
35920;DHT22;36160;53.370;-6.196;2022-09-09T02:24:57;15.30;99.90
35920;DHT22;36160;53.370;-6.196;2022-09-09T02:27:24;15.40;99.90
35920;DHT22;36160;53.370;-6.196;2022-09-09T02:29:51;15.40;99.90
35920;DHT22;36160;53.370;-6.196;2022-09-09T02:32:21;15.30;99.90
35920;DHT22;36160;53.370;-6.196;2022-09-09T02:34:56;15.40;99.90
35920;DHT22;36160;53.370;-6.196;2022-09-09T02:37:27;15.30;99.90
35920;DHT22;36160;53.370;-6.196;2022-09-09T02:39:55;15.50;99.90
35920;DHT22;36160;53.370;-6.196;2022-09-09T02:42:20;15.30;99.90
35920;DHT22;36160;53.370;-6.196;2022-09-09T02:44:46;15.40;99.90
35920;DHT22;36160;53.370;-6.196;2022-09-09T02:52:59;15.40;99.90
35920;DHT22;36160;53.370;-6.196;2022-09-09T02:55:42;15.30;99.90
35920;DHT22;36160;53.370;-6.196;2022-09-09T02:58:13;15.50;99.90
35920;DHT22;36160;53.370;-6.196;2022-09-09T03:00:44;15.30;99.90
35920;DHT22;36160;53.370;-6.196;2022-09-09T03:03:10;15.40;99.90
35920;DHT22;36160;53.370;-6.196;2022-09-09T03:05:36;15.40;99.90
35920;DHT22;36160;53.370;-6.196;2022-09-09T03:08:03;15.30;99.90
35920;DHT22;36160;53.370;-6.196;2022-09-09T03:10:31;15.20;99.90
35920;DHT22;36160;53.370;-6.196;2022-09-09T03:12:57;15.20;99.90
35920;DHT22;36160;53.370;-6.196;2022-09-09T03:15:22;15.30;99.90
35920;DHT22;36160;53.370;-6.196;2022-09-09T03:17:48;15.20;99.90
35920;DHT22;36160;53.370;-6.196;2022-09-09T03:20:14;15.30;99.90
35920;DHT22;36160;53.370;-6.196;2022-09-09T03:22:39;15.30;99.90
35920;DHT22;36160;53.370;-6.196;2022-09-09T03:25:06;15.30;99.90
35920;DHT22;36160;53.370;-6.196;2022-09-09T03:27:32;15.40;99.90
35920;DHT22;36160;53.370;-6.196;2022-09-09T03:29:58;15.40;99.90
35920;DHT22;36160;53.370;-6.196;2022-09-09T03:32:24;15.30;99.90
35920;DHT22;36160;53.370;-6.196;2022-09-09T03:34:52;15.30;99.90
35920;DHT22;36160;53.370;-6.196;2022-09-09T03:37:19;15.30;99.90
35920;DHT22;36160;53.370;-6.196;2022-09-09T03:39:45;15.20;99.90
35920;DHT22;36160;53.370;-6.196;2022-09-09T03:42:14;15.20;99.90
35920;DHT22;36160;53.370;-6.196;2022-09-09T03:44:44;15.20;99.90
35920;DHT22;36160;53.370;-6.196;2022-09-09T03:47:12;15.30;99.90
35920;DHT22;36160;53.370;-6.196;2022-09-09T03:49:38;15.30;99.90
35920;DHT22;36160;53.370;-6.196;2022-09-09T03:52:04;15.10;99.90
35920;DHT22;36160;53.370;-6.196;2022-09-09T03:54:29;15.20;99.90
35920;DHT22;36160;53.370;-6.196;2022-09-09T03:56:55;15.30;99.90
35920;DHT22;36160;53.370;-6.196;2022-09-09T03:59:21;15.20;99.90
35920;DHT22;36160;53.370;-6.196;2022-09-09T04:01:46;15.10;99.90
35920;DHT22;36160;53.370;-6.196;2022-09-09T04:04:12;15.00;99.90
35920;DHT22;36160;53.370;-6.196;2022-09-09T04:06:38;15.00;99.90
35920;DHT22;36160;53.370;-6.196;2022-09-09T04:09:03;15.00;99.90
35920;DHT22;36160;53.370;-6.196;2022-09-09T04:11:29;15.10;99.90
35920;DHT22;36160;53.370;-6.196;2022-09-09T04:13:55;15.10;99.90
35920;DHT22;36160;53.370;-6.196;2022-09-09T04:16:20;15.00;99.90
35920;DHT22;36160;53.370;-6.196;2022-09-09T04:18:46;15.10;99.90
35920;DHT22;36160;53.370;-6.196;2022-09-09T04:21:12;15.00;99.90
35920;DHT22;36160;53.370;-6.196;2022-09-09T04:23:39;14.90;99.90
35920;DHT22;36160;53.370;-6.196;2022-09-09T04:26:05;15.10;99.90
35920;DHT22;36160;53.370;-6.196;2022-09-09T04:28:33;14.90;99.90
35920;DHT22;36160;53.370;-6.196;2022-09-09T04:31:08;15.00;99.90
35920;DHT22;36160;53.370;-6.196;2022-09-09T04:33:34;15.00;99.90
35920;DHT22;36160;53.370;-6.196;2022-09-09T04:36:00;15.00;99.90
35920;DHT22;36160;53.370;-6.196;2022-09-09T04:38:26;14.90;99.90
35920;DHT22;36160;53.370;-6.196;2022-09-09T04:40:52;15.10;99.90
35920;DHT22;36160;53.370;-6.196;2022-09-09T04:43:19;15.10;99.90
35920;DHT22;36160;53.370;-6.196;2022-09-09T04:45:49;15.00;99.90
35920;DHT22;36160;53.370;-6.196;2022-09-09T04:48:16;14.90;99.90
35920;DHT22;36160;53.370;-6.196;2022-09-09T04:50:42;15.00;99.90
35920;DHT22;36160;53.370;-6.196;2022-09-09T04:53:07;15.00;99.90
35920;DHT22;36160;53.370;-6.196;2022-09-09T04:55:34;14.90;99.90
35920;DHT22;36160;53.370;-6.196;2022-09-09T04:58:07;15.10;99.90
35920;DHT22;36160;53.370;-6.196;2022-09-09T05:00:35;14.90;99.90
35920;DHT22;36160;53.370;-6.196;2022-09-09T05:03:05;14.90;99.90
35920;DHT22;36160;53.370;-6.196;2022-09-09T05:05:31;15.00;99.90
35920;DHT22;36160;53.370;-6.196;2022-09-09T05:08:06;15.00;99.90
35920;DHT22;36160;53.370;-6.196;2022-09-09T05:10:34;14.90;99.90
35920;DHT22;36160;53.370;-6.196;2022-09-09T05:13:00;15.00;99.90
35920;DHT22;36160;53.370;-6.196;2022-09-09T05:15:25;14.90;99.90
35920;DHT22;36160;53.370;-6.196;2022-09-09T05:17:51;14.90;99.90
35920;DHT22;36160;53.370;-6.196;2022-09-09T05:20:20;14.90;99.90
35920;DHT22;36160;53.370;-6.196;2022-09-09T05:22:46;15.00;99.90
35920;DHT22;36160;53.370;-6.196;2022-09-09T05:25:12;14.80;99.90
35920;DHT22;36160;53.370;-6.196;2022-09-09T05:27:38;14.90;99.90
35920;DHT22;36160;53.370;-6.196;2022-09-09T05:30:03;14.90;99.90
35920;DHT22;36160;53.370;-6.196;2022-09-09T05:32:30;14.80;99.90
35920;DHT22;36160;53.370;-6.196;2022-09-09T05:34:58;14.90;99.90
35920;DHT22;36160;53.370;-6.196;2022-09-09T05:37:24;15.00;99.90
35920;DHT22;36160;53.370;-6.196;2022-09-09T05:39:50;15.00;99.90
35920;DHT22;36160;53.370;-6.196;2022-09-09T05:42:16;15.00;99.90
35920;DHT22;36160;53.370;-6.196;2022-09-09T05:44:42;15.10;99.90
35920;DHT22;36160;53.370;-6.196;2022-09-09T05:47:08;15.00;99.90
35920;DHT22;36160;53.370;-6.196;2022-09-09T05:49:34;15.00;99.90
35920;DHT22;36160;53.370;-6.196;2022-09-09T05:52:00;15.10;99.90
35920;DHT22;36160;53.370;-6.196;2022-09-09T05:54:25;14.90;99.90
35920;DHT22;36160;53.370;-6.196;2022-09-09T05:56:51;14.90;99.90
35920;DHT22;36160;53.370;-6.196;2022-09-09T05:59:19;15.00;99.90
35920;DHT22;36160;53.370;-6.196;2022-09-09T06:01:45;14.90;99.90
35920;DHT22;36160;53.370;-6.196;2022-09-09T06:04:10;15.10;99.90
35920;DHT22;36160;53.370;-6.196;2022-09-09T06:06:37;15.00;99.90
35920;DHT22;36160;53.370;-6.196;2022-09-09T06:09:07;15.10;99.90
35920;DHT22;36160;53.370;-6.196;2022-09-09T06:11:36;15.00;99.90
35920;DHT22;36160;53.370;-6.196;2022-09-09T06:14:03;14.90;99.90
35920;DHT22;36160;53.370;-6.196;2022-09-09T06:16:30;14.90;99.90
35920;DHT22;36160;53.370;-6.196;2022-09-09T06:18:58;14.90;99.90
35920;DHT22;36160;53.370;-6.196;2022-09-09T06:21:32;15.10;99.90
35920;DHT22;36160;53.370;-6.196;2022-09-09T06:24:04;14.90;99.90
35920;DHT22;36160;53.370;-6.196;2022-09-09T06:26:32;15.10;99.90
35920;DHT22;36160;53.370;-6.196;2022-09-09T06:28:59;15.00;99.90
35920;DHT22;36160;53.370;-6.196;2022-09-09T06:31:27;14.90;99.90
35920;DHT22;36160;53.370;-6.196;2022-09-09T06:33:56;15.00;99.90
35920;DHT22;36160;53.370;-6.196;2022-09-09T06:36:24;15.00;99.90
35920;DHT22;36160;53.370;-6.196;2022-09-09T06:38:50;15.20;99.90
35920;DHT22;36160;53.370;-6.196;2022-09-09T06:41:17;15.20;99.90
35920;DHT22;36160;53.370;-6.196;2022-09-09T06:43:44;15.20;99.90
35920;DHT22;36160;53.370;-6.196;2022-09-09T06:46:20;15.30;99.90
35920;DHT22;36160;53.370;-6.196;2022-09-09T06:48:47;15.20;99.90
35920;DHT22;36160;53.370;-6.196;2022-09-09T06:51:18;15.10;99.90
35920;DHT22;36160;53.370;-6.196;2022-09-09T06:53:45;15.10;99.90
35920;DHT22;36160;53.370;-6.196;2022-09-09T06:58:39;15.20;99.90
35920;DHT22;36160;53.370;-6.196;2022-09-09T07:01:09;15.10;99.90
35920;DHT22;36160;53.370;-6.196;2022-09-09T07:03:35;15.20;99.90
35920;DHT22;36160;53.370;-6.196;2022-09-09T07:06:02;15.20;99.90
35920;DHT22;36160;53.370;-6.196;2022-09-09T07:08:29;15.30;99.90
35920;DHT22;36160;53.370;-6.196;2022-09-09T07:11:05;15.10;99.90
35920;DHT22;36160;53.370;-6.196;2022-09-09T07:13:31;15.30;99.90
35920;DHT22;36160;53.370;-6.196;2022-09-09T07:16:10;15.40;99.90
35920;DHT22;36160;53.370;-6.196;2022-09-09T07:18:36;15.30;99.90
35920;DHT22;36160;53.370;-6.196;2022-09-09T07:21:03;15.40;99.90
35920;DHT22;36160;53.370;-6.196;2022-09-09T07:23:30;15.40;99.90
35920;DHT22;36160;53.370;-6.196;2022-09-09T07:25:57;15.50;99.90
35920;DHT22;36160;53.370;-6.196;2022-09-09T07:28:23;15.60;99.90
35920;DHT22;36160;53.370;-6.196;2022-09-09T07:30:57;15.60;99.90
35920;DHT22;36160;53.370;-6.196;2022-09-09T07:33:25;15.50;99.90
35920;DHT22;36160;53.370;-6.196;2022-09-09T07:35:52;15.70;99.90
35920;DHT22;36160;53.370;-6.196;2022-09-09T07:38:19;15.80;99.90
35920;DHT22;36160;53.370;-6.196;2022-09-09T07:40:45;15.70;99.90
35920;DHT22;36160;53.370;-6.196;2022-09-09T07:43:11;15.90;99.90
35920;DHT22;36160;53.370;-6.196;2022-09-09T07:45:37;15.90;99.90
35920;DHT22;36160;53.370;-6.196;2022-09-09T07:48:03;15.70;99.90
35920;DHT22;36160;53.370;-6.196;2022-09-09T07:50:29;15.90;99.90
35920;DHT22;36160;53.370;-6.196;2022-09-09T07:52:56;15.70;99.90
35920;DHT22;36160;53.370;-6.196;2022-09-09T07:55:22;15.90;99.90
35920;DHT22;36160;53.370;-6.196;2022-09-09T07:57:53;15.80;99.90
35920;DHT22;36160;53.370;-6.196;2022-09-09T08:00:19;15.90;99.90
35920;DHT22;36160;53.370;-6.196;2022-09-09T08:02:48;16.20;99.90
35920;DHT22;36160;53.370;-6.196;2022-09-09T08:05:14;16.20;99.90
35920;DHT22;36160;53.370;-6.196;2022-09-09T08:07:42;16.30;99.90
35920;DHT22;36160;53.370;-6.196;2022-09-09T08:10:08;16.40;99.90
35920;DHT22;36160;53.370;-6.196;2022-09-09T08:12:34;16.40;99.90
35920;DHT22;36160;53.370;-6.196;2022-09-09T08:15:00;16.40;99.90
35920;DHT22;36160;53.370;-6.196;2022-09-09T08:17:26;16.30;99.90
35920;DHT22;36160;53.370;-6.196;2022-09-09T08:19:52;16.40;99.90
35920;DHT22;36160;53.370;-6.196;2022-09-09T08:22:19;16.50;99.90
35920;DHT22;36160;53.370;-6.196;2022-09-09T08:24:46;16.90;99.90
35920;DHT22;36160;53.370;-6.196;2022-09-09T08:27:12;17.00;99.90
35920;DHT22;36160;53.370;-6.196;2022-09-09T08:29:38;17.00;99.90
35920;DHT22;36160;53.370;-6.196;2022-09-09T08:32:05;16.80;99.90
35920;DHT22;36160;53.370;-6.196;2022-09-09T08:34:31;16.80;99.90
35920;DHT22;36160;53.370;-6.196;2022-09-09T08:36:59;16.80;99.90
35920;DHT22;36160;53.370;-6.196;2022-09-09T08:39:26;17.00;99.90
35920;DHT22;36160;53.370;-6.196;2022-09-09T08:50:29;17.10;99.90
35920;DHT22;36160;53.370;-6.196;2022-09-09T08:53:16;17.20;99.90
35920;DHT22;36160;53.370;-6.196;2022-09-09T08:55:54;17.30;99.90
35920;DHT22;36160;53.370;-6.196;2022-09-09T08:58:34;17.20;99.90
35920;DHT22;36160;53.370;-6.196;2022-09-09T09:11:22;17.60;99.90
35920;DHT22;36160;53.370;-6.196;2022-09-09T09:13:58;17.40;99.90
35920;DHT22;36160;53.370;-6.196;2022-09-09T09:16:34;17.50;99.90
35920;DHT22;36160;53.370;-6.196;2022-09-09T09:19:02;17.30;99.90
35920;DHT22;36160;53.370;-6.196;2022-09-09T09:21:39;17.50;99.90
35920;DHT22;36160;53.370;-6.196;2022-09-09T09:24:19;17.60;99.90
35920;DHT22;36160;53.370;-6.196;2022-09-09T09:26:46;17.70;99.90
35920;DHT22;36160;53.370;-6.196;2022-09-09T09:29:14;17.70;99.90
35920;DHT22;36160;53.370;-6.196;2022-09-09T09:31:55;17.70;99.90
35920;DHT22;36160;53.370;-6.196;2022-09-09T09:34:23;17.70;99.90
35920;DHT22;36160;53.370;-6.196;2022-09-09T09:36:55;17.80;99.90
35920;DHT22;36160;53.370;-6.196;2022-09-09T09:39:27;17.80;99.90
35920;DHT22;36160;53.370;-6.196;2022-09-09T09:41:54;17.90;99.90
35920;DHT22;36160;53.370;-6.196;2022-09-09T09:44:31;18.20;99.90
35920;DHT22;36160;53.370;-6.196;2022-09-09T09:47:12;18.10;99.90
35920;DHT22;36160;53.370;-6.196;2022-09-09T09:49:39;18.10;99.90
35920;DHT22;36160;53.370;-6.196;2022-09-09T09:52:20;18.20;99.90
35920;DHT22;36160;53.370;-6.196;2022-09-09T09:54:46;18.30;99.90
35920;DHT22;36160;53.370;-6.196;2022-09-09T09:57:14;18.30;99.90
35920;DHT22;36160;53.370;-6.196;2022-09-09T09:59:42;18.60;99.90
35920;DHT22;36160;53.370;-6.196;2022-09-09T10:02:23;18.30;99.90
35920;DHT22;36160;53.370;-6.196;2022-09-09T10:05:02;18.40;99.90
35920;DHT22;36160;53.370;-6.196;2022-09-09T10:07:28;18.40;99.90
35920;DHT22;36160;53.370;-6.196;2022-09-09T10:09:56;18.20;99.90
35920;DHT22;36160;53.370;-6.196;2022-09-09T10:18:13;18.50;99.90
35920;DHT22;36160;53.370;-6.196;2022-09-09T10:21:31;18.60;99.90
35920;DHT22;36160;53.370;-6.196;2022-09-09T10:26:39;18.30;99.90
35920;DHT22;36160;53.370;-6.196;2022-09-09T10:32:05;18.40;99.90
35920;DHT22;36160;53.370;-6.196;2022-09-09T10:37:18;18.40;99.90
35920;DHT22;36160;53.370;-6.196;2022-09-09T10:39:53;18.50;99.90
35920;DHT22;36160;53.370;-6.196;2022-09-09T10:42:30;18.70;99.90
35920;DHT22;36160;53.370;-6.196;2022-09-09T10:55:52;18.60;99.90
35920;DHT22;36160;53.370;-6.196;2022-09-09T10:58:39;18.70;99.90
35920;DHT22;36160;53.370;-6.196;2022-09-09T11:01:28;18.90;99.90
35920;DHT22;36160;53.370;-6.196;2022-09-09T11:04:13;19.10;99.90
35920;DHT22;36160;53.370;-6.196;2022-09-09T11:06:45;19.30;99.90
35920;DHT22;36160;53.370;-6.196;2022-09-09T11:09:23;19.40;99.90
35920;DHT22;36160;53.370;-6.196;2022-09-09T11:11:54;19.30;99.90
35920;DHT22;36160;53.370;-6.196;2022-09-09T11:14:28;19.30;99.90
35920;DHT22;36160;53.370;-6.196;2022-09-09T11:17:06;19.30;99.90
35920;DHT22;36160;53.370;-6.196;2022-09-09T11:19:42;19.20;99.90
35920;DHT22;36160;53.370;-6.196;2022-09-09T11:22:30;19.00;99.90
35920;DHT22;36160;53.370;-6.196;2022-09-09T11:25:23;18.90;99.90
35920;DHT22;36160;53.370;-6.196;2022-09-09T11:34:02;19.30;99.90
35920;DHT22;36160;53.370;-6.196;2022-09-09T11:42:23;19.70;99.90
35920;DHT22;36160;53.370;-6.196;2022-09-09T11:44:50;19.70;99.90
35920;DHT22;36160;53.370;-6.196;2022-09-09T11:47:28;19.60;99.90
35920;DHT22;36160;53.370;-6.196;2022-09-09T11:50:30;19.50;99.90
35920;DHT22;36160;53.370;-6.196;2022-09-09T11:55:39;19.40;99.90
35920;DHT22;36160;53.370;-6.196;2022-09-09T11:58:15;19.50;99.90
35920;DHT22;36160;53.370;-6.196;2022-09-09T12:00:47;19.80;99.90
35920;DHT22;36160;53.370;-6.196;2022-09-09T12:03:40;19.70;99.90
35920;DHT22;36160;53.370;-6.196;2022-09-09T12:06:29;19.60;99.90
35920;DHT22;36160;53.370;-6.196;2022-09-09T12:09:12;19.20;99.90
35920;DHT22;36160;53.370;-6.196;2022-09-09T12:11:39;19.10;99.90
35920;DHT22;36160;53.370;-6.196;2022-09-09T12:14:34;19.10;99.90
35920;DHT22;36160;53.370;-6.196;2022-09-09T12:19:46;19.00;99.90
35920;DHT22;36160;53.370;-6.196;2022-09-09T12:25:39;19.10;99.90
35920;DHT22;36160;53.370;-6.196;2022-09-09T12:28:11;19.10;99.90
35920;DHT22;36160;53.370;-6.196;2022-09-09T12:33:44;19.30;99.90
35920;DHT22;36160;53.370;-6.196;2022-09-09T12:36:25;19.30;99.90
35920;DHT22;36160;53.370;-6.196;2022-09-09T12:38:55;19.40;99.90
35920;DHT22;36160;53.370;-6.196;2022-09-09T12:41:27;19.50;99.90
35920;DHT22;36160;53.370;-6.196;2022-09-09T12:44:08;19.60;99.90
35920;DHT22;36160;53.370;-6.196;2022-09-09T12:46:43;19.50;99.90
35920;DHT22;36160;53.370;-6.196;2022-09-09T12:49:34;19.70;99.90
35920;DHT22;36160;53.370;-6.196;2022-09-09T12:52:31;19.70;99.90
35920;DHT22;36160;53.370;-6.196;2022-09-09T12:55:01;19.80;99.90
35920;DHT22;36160;53.370;-6.196;2022-09-09T12:57:33;19.90;99.90
35920;DHT22;36160;53.370;-6.196;2022-09-09T13:00:24;20.20;99.90
35920;DHT22;36160;53.370;-6.196;2022-09-09T13:02:58;20.30;99.90
35920;DHT22;36160;53.370;-6.196;2022-09-09T13:05:34;20.40;94.20
35920;DHT22;36160;53.370;-6.196;2022-09-09T13:08:05;20.50;83.20
35920;DHT22;36160;53.370;-6.196;2022-09-09T13:10:35;20.50;69.40
35920;DHT22;36160;53.370;-6.196;2022-09-09T13:13:04;20.50;79.20
35920;DHT22;36160;53.370;-6.196;2022-09-09T13:15:38;20.50;82.00
35920;DHT22;36160;53.370;-6.196;2022-09-09T13:18:10;20.30;72.10
35920;DHT22;36160;53.370;-6.196;2022-09-09T13:20:37;20.30;90.80
35920;DHT22;36160;53.370;-6.196;2022-09-09T13:23:03;20.40;91.80
35920;DHT22;36160;53.370;-6.196;2022-09-09T13:25:29;20.30;96.40
35920;DHT22;36160;53.370;-6.196;2022-09-09T13:28:03;20.20;96.10
35920;DHT22;36160;53.370;-6.196;2022-09-09T13:30:32;20.10;99.90
35920;DHT22;36160;53.370;-6.196;2022-09-09T13:33:18;20.00;99.90
35920;DHT22;36160;53.370;-6.196;2022-09-09T13:36:09;19.70;99.90
35920;DHT22;36160;53.370;-6.196;2022-09-09T13:38:38;19.50;99.90
35920;DHT22;36160;53.370;-6.196;2022-09-09T13:41:08;19.50;99.90
35920;DHT22;36160;53.370;-6.196;2022-09-09T13:46:05;19.30;99.90
35920;DHT22;36160;53.370;-6.196;2022-09-09T13:48:54;19.10;99.90
35920;DHT22;36160;53.370;-6.196;2022-09-09T13:51:32;19.00;99.90
35920;DHT22;36160;53.370;-6.196;2022-09-09T13:53:59;18.90;99.90
35920;DHT22;36160;53.370;-6.196;2022-09-09T13:56:26;18.80;99.90
35920;DHT22;36160;53.370;-6.196;2022-09-09T13:58:52;18.90;99.90
35920;DHT22;36160;53.370;-6.196;2022-09-09T14:01:19;18.70;99.90
35920;DHT22;36160;53.370;-6.196;2022-09-09T14:03:45;18.50;99.90
35920;DHT22;36160;53.370;-6.196;2022-09-09T14:06:11;18.50;99.90
35920;DHT22;36160;53.370;-6.196;2022-09-09T14:08:37;18.40;99.90
35920;DHT22;36160;53.370;-6.196;2022-09-09T14:11:04;18.70;99.90
35920;DHT22;36160;53.370;-6.196;2022-09-09T14:13:30;18.50;99.90
35920;DHT22;36160;53.370;-6.196;2022-09-09T14:15:55;18.60;99.90
35920;DHT22;36160;53.370;-6.196;2022-09-09T14:18:22;18.50;99.90
35920;DHT22;36160;53.370;-6.196;2022-09-09T14:20:48;18.80;99.90
35920;DHT22;36160;53.370;-6.196;2022-09-09T14:23:16;18.70;99.90
35920;DHT22;36160;53.370;-6.196;2022-09-09T14:25:43;18.70;99.90
35920;DHT22;36160;53.370;-6.196;2022-09-09T14:28:10;18.70;99.90
35920;DHT22;36160;53.370;-6.196;2022-09-09T14:30:40;18.90;99.90
35920;DHT22;36160;53.370;-6.196;2022-09-09T14:33:07;18.90;99.90
35920;DHT22;36160;53.370;-6.196;2022-09-09T14:35:33;18.90;99.90
35920;DHT22;36160;53.370;-6.196;2022-09-09T14:37:59;19.10;99.90
35920;DHT22;36160;53.370;-6.196;2022-09-09T14:40:26;19.00;99.90
35920;DHT22;36160;53.370;-6.196;2022-09-09T14:42:53;18.80;99.90
35920;DHT22;36160;53.370;-6.196;2022-09-09T14:45:18;18.90;99.90
35920;DHT22;36160;53.370;-6.196;2022-09-09T14:47:44;19.00;99.90
35920;DHT22;36160;53.370;-6.196;2022-09-09T14:50:10;19.20;99.90
35920;DHT22;36160;53.370;-6.196;2022-09-09T14:52:38;19.30;99.90
35920;DHT22;36160;53.370;-6.196;2022-09-09T14:55:04;19.40;99.90
35920;DHT22;36160;53.370;-6.196;2022-09-09T14:57:31;19.20;99.90
35920;DHT22;36160;53.370;-6.196;2022-09-09T14:59:58;19.20;99.90
35920;DHT22;36160;53.370;-6.196;2022-09-09T15:02:24;19.30;99.90
35920;DHT22;36160;53.370;-6.196;2022-09-09T15:04:50;19.20;99.90
35920;DHT22;36160;53.370;-6.196;2022-09-09T15:07:16;19.30;99.90
35920;DHT22;36160;53.370;-6.196;2022-09-09T15:09:45;19.50;99.90
35920;DHT22;36160;53.370;-6.196;2022-09-09T15:12:13;19.40;99.90
35920;DHT22;36160;53.370;-6.196;2022-09-09T15:14:40;19.40;99.90
35920;DHT22;36160;53.370;-6.196;2022-09-09T15:17:05;19.40;99.90
35920;DHT22;36160;53.370;-6.196;2022-09-09T15:19:31;19.60;99.90
35920;DHT22;36160;53.370;-6.196;2022-09-09T15:21:58;19.50;99.90
35920;DHT22;36160;53.370;-6.196;2022-09-09T15:24:25;19.50;99.90
35920;DHT22;36160;53.370;-6.196;2022-09-09T15:26:52;19.40;99.40
35920;DHT22;36160;53.370;-6.196;2022-09-09T15:29:19;19.40;99.90
35920;DHT22;36160;53.370;-6.196;2022-09-09T15:31:45;19.20;99.90
35920;DHT22;36160;53.370;-6.196;2022-09-09T15:34:11;19.20;99.90
35920;DHT22;36160;53.370;-6.196;2022-09-09T15:36:41;19.20;99.90
35920;DHT22;36160;53.370;-6.196;2022-09-09T15:39:12;19.30;99.90
35920;DHT22;36160;53.370;-6.196;2022-09-09T15:41:41;19.20;98.10
35920;DHT22;36160;53.370;-6.196;2022-09-09T15:44:10;19.10;99.90
35920;DHT22;36160;53.370;-6.196;2022-09-09T15:49:15;19.20;99.90
35920;DHT22;36160;53.370;-6.196;2022-09-09T15:51:47;19.20;99.90
35920;DHT22;36160;53.370;-6.196;2022-09-09T15:54:19;19.10;99.90
35920;DHT22;36160;53.370;-6.196;2022-09-09T15:56:52;19.10;99.90
35920;DHT22;36160;53.370;-6.196;2022-09-09T15:59:20;19.20;99.90
35920;DHT22;36160;53.370;-6.196;2022-09-09T16:01:46;19.10;93.30
35920;DHT22;36160;53.370;-6.196;2022-09-09T16:04:12;19.10;93.30
35920;DHT22;36160;53.370;-6.196;2022-09-09T16:06:38;19.20;93.30
35920;DHT22;36160;53.370;-6.196;2022-09-09T16:09:06;19.10;92.10
35920;DHT22;36160;53.370;-6.196;2022-09-09T16:11:34;18.90;91.40
35920;DHT22;36160;53.370;-6.196;2022-09-09T16:14:01;18.80;99.50
35920;DHT22;36160;53.370;-6.196;2022-09-09T16:16:29;18.80;95.50
35920;DHT22;36160;53.370;-6.196;2022-09-09T16:19:00;18.80;99.90
35920;DHT22;36160;53.370;-6.196;2022-09-09T16:23:55;18.70;99.90
35920;DHT22;36160;53.370;-6.196;2022-09-09T16:26:22;18.80;99.90
35920;DHT22;36160;53.370;-6.196;2022-09-09T16:28:49;18.80;99.90
35920;DHT22;36160;53.370;-6.196;2022-09-09T16:31:21;18.80;99.90
35920;DHT22;36160;53.370;-6.196;2022-09-09T16:33:47;18.80;99.90
35920;DHT22;36160;53.370;-6.196;2022-09-09T16:36:19;18.80;99.90
35920;DHT22;36160;53.370;-6.196;2022-09-09T16:38:45;18.80;99.90
35920;DHT22;36160;53.370;-6.196;2022-09-09T16:41:12;18.80;99.90
35920;DHT22;36160;53.370;-6.196;2022-09-09T16:43:39;18.70;99.90
35920;DHT22;36160;53.370;-6.196;2022-09-09T16:46:19;18.70;99.90
35920;DHT22;36160;53.370;-6.196;2022-09-09T16:48:46;18.70;99.90
35920;DHT22;36160;53.370;-6.196;2022-09-09T16:51:24;18.60;99.90
35920;DHT22;36160;53.370;-6.196;2022-09-09T16:53:51;18.70;99.90
35920;DHT22;36160;53.370;-6.196;2022-09-09T16:56:20;18.70;99.90
35920;DHT22;36160;53.370;-6.196;2022-09-09T16:58:50;18.60;99.90
35920;DHT22;36160;53.370;-6.196;2022-09-09T17:01:16;18.60;99.90
35920;DHT22;36160;53.370;-6.196;2022-09-09T17:03:42;18.60;99.90
35920;DHT22;36160;53.370;-6.196;2022-09-09T17:06:12;18.50;99.90
35920;DHT22;36160;53.370;-6.196;2022-09-09T17:08:39;18.40;99.90
35920;DHT22;36160;53.370;-6.196;2022-09-09T17:11:17;18.50;99.90
35920;DHT22;36160;53.370;-6.196;2022-09-09T17:13:45;18.40;99.90
35920;DHT22;36160;53.370;-6.196;2022-09-09T17:16:11;18.40;99.90
35920;DHT22;36160;53.370;-6.196;2022-09-09T17:18:38;18.30;99.90
35920;DHT22;36160;53.370;-6.196;2022-09-09T17:21:08;18.20;99.90
35920;DHT22;36160;53.370;-6.196;2022-09-09T17:23:36;18.40;99.90
35920;DHT22;36160;53.370;-6.196;2022-09-09T17:26:05;18.30;99.90
35920;DHT22;36160;53.370;-6.196;2022-09-09T17:28:31;18.20;99.90
35920;DHT22;36160;53.370;-6.196;2022-09-09T17:31:00;18.20;99.90
35920;DHT22;36160;53.370;-6.196;2022-09-09T17:33:28;18.20;99.90
35920;DHT22;36160;53.370;-6.196;2022-09-09T17:35:57;18.20;99.90
35920;DHT22;36160;53.370;-6.196;2022-09-09T17:38:24;18.30;99.90